Time;durP1;ratioP1;P1;durP2;ratioP2;P2;SDS_P1;SDS_P2;PMS_P1;PMS_P2;Temp;Humidity;BMP_temperature;BMP_pressure;BME280_temperature;BME280_humidity;BME280_pressure;Samples;Min_cycle;Max_cycle;Signal;HPM_P1;HPM_P2
2023/01/06 00:00:17;;;;;;;3.13;2.20;;;12.20;48.10;;;;;;5053805;28;20306;-50
2023/01/06 00:02:44;;;;;;;3.40;2.00;;;12.30;48.20;;;;;;5053597;28;20283;-50
2023/01/06 00:05:10;;;;;;;4.85;2.20;;;12.30;48.40;;;;;;5053354;28;20407;-49
2023/01/06 00:07:36;;;;;;;3.97;1.83;;;12.30;48.30;;;;;;5053531;28;20356;-49
2023/01/06 00:10:01;;;;;;;5.00;2.20;;;12.30;48.40;;;;;;5053480;28;20680;-50
2023/01/06 00:12:27;;;;;;;3.93;1.73;;;12.20;48.40;;;;;;5053498;28;20568;-50
2023/01/06 00:14:54;;;;;;;3.77;2.00;;;12.30;48.40;;;;;;5053197;28;20188;-49
2023/01/06 00:17:20;;;;;;;2.80;1.92;;;12.30;48.40;;;;;;5053345;28;20172;-49
2023/01/06 00:19:46;;;;;;;2.13;1.60;;;12.30;48.20;;;;;;5053244;28;20205;-49
2023/01/06 00:22:11;;;;;;;4.90;1.97;;;12.30;48.30;;;;;;5053231;28;20431;-50
2023/01/06 00:24:37;;;;;;;5.10;1.93;;;12.40;48.30;;;;;;5052862;28;20189;-49
2023/01/06 00:27:03;;;;;;;4.70;2.63;;;12.40;48.30;;;;;;5052138;28;20636;-50
2023/01/06 00:29:29;;;;;;;3.70;2.33;;;12.40;48.20;;;;;;5053182;28;20192;-49
2023/01/06 00:31:54;;;;;;;7.30;3.30;;;12.40;48.10;;;;;;5053114;28;20396;-50
2023/01/06 00:34:20;;;;;;;3.60;2.00;;;12.40;48.30;;;;;;5052715;28;20439;-50
2023/01/06 00:36:46;;;;;;;4.63;1.80;;;12.40;48.10;;;;;;5052979;28;20241;-50
2023/01/06 00:39:12;;;;;;;3.03;2.33;;;12.40;48.00;;;;;;5052914;28;20252;-49
2023/01/06 00:44:23;;;;;;;3.03;1.80;;;12.40;47.90;;;;;;5052694;28;20584;-50
2023/01/06 00:46:49;;;;;;;3.40;2.23;;;12.40;48.10;;;;;;5052882;28;20173;-50
2023/01/06 00:49:15;;;;;;;4.77;3.53;;;12.30;48.10;;;;;;5052800;28;20971;-49
2023/01/06 00:51:41;;;;;;;3.17;1.97;;;12.30;48.20;;;;;;5052783;28;20439;-50
2023/01/06 00:54:13;;;;;;;3.97;2.40;;;12.30;48.40;;;;;;5053199;28;20193;-49
2023/01/06 00:56:43;;;;;;;3.00;1.98;;;12.30;48.70;;;;;;5052616;28;20179;-50
2023/01/06 00:59:12;;;;;;;4.35;2.40;;;12.20;48.60;;;;;;5052642;28;20177;-50
2023/01/06 01:01:38;;;;;;;3.38;2.05;;;12.20;48.80;;;;;;5052505;28;20300;-50
2023/01/06 01:04:04;;;;;;;4.95;2.10;;;12.20;48.70;;;;;;5052351;28;20229;-50
2023/01/06 01:06:30;;;;;;;4.28;3.05;;;12.20;48.70;;;;;;5052438;28;20191;-49
2023/01/06 01:08:57;;;;;;;3.00;2.40;;;12.30;48.80;;;;;;5052492;28;20178;-50
2023/01/06 01:14:09;;;;;;;5.28;3.22;;;12.30;48.50;;;;;;5052582;28;20251;-49
2023/01/06 01:16:35;;;;;;;5.22;2.42;;;12.30;48.80;;;;;;5052210;28;20173;-50
2023/01/06 01:19:01;;;;;;;3.50;2.40;;;12.30;48.60;;;;;;5052188;28;20196;-50
2023/01/06 01:21:27;;;;;;;7.80;3.50;;;12.30;48.50;;;;;;5052123;28;20197;-49
2023/01/06 01:23:53;;;;;;;4.70;2.92;;;12.30;48.50;;;;;;5052087;28;20276;-50
2023/01/06 01:26:18;;;;;;;3.87;2.33;;;12.30;48.70;;;;;;5051836;28;20249;-50
2023/01/06 01:28:44;;;;;;;9.60;2.80;;;12.30;48.70;;;;;;5052168;28;20524;-50
2023/01/06 01:31:12;;;;;;;5.83;2.90;;;12.20;48.60;;;;;;5052209;28;20172;-49
2023/01/06 01:33:38;;;;;;;5.60;2.85;;;12.20;48.80;;;;;;5051768;28;20208;-50
2023/01/06 01:36:13;;;;;;;8.00;3.35;;;12.20;49.10;;;;;;5051884;28;20170;-50
2023/01/06 01:38:38;;;;;;;4.05;2.65;;;12.20;49.10;;;;;;5051650;28;20188;-50
2023/01/06 01:41:05;;;;;;;7.17;2.93;;;12.10;49.30;;;;;;5051930;28;20209;-50
2023/01/06 01:43:44;;;;;;;6.45;2.88;;;12.10;49.50;;;;;;5052347;28;20672;-50
2023/01/06 01:46:11;;;;;;;4.88;2.60;;;12.10;49.50;;;;;;5051803;28;20451;-50
2023/01/06 01:48:38;;;;;;;3.67;2.88;;;12.00;49.60;;;;;;5052009;28;20629;-50
2023/01/06 01:51:08;;;;;;;3.42;2.40;;;12.00;49.60;;;;;;5051936;28;20186;-50
2023/01/06 01:53:42;;;;;;;8.07;2.67;;;12.00;49.70;;;;;;5051879;28;20201;-50
2023/01/06 01:56:12;;;;;;;6.50;2.70;;;12.00;49.70;;;;;;5051700;28;20172;-50
2023/01/06 01:58:54;;;;;;;4.35;2.33;;;12.00;49.50;;;;;;5051774;28;20180;-50
2023/01/06 02:01:19;;;;;;;5.28;2.30;;;12.00;49.50;;;;;;5051816;28;20201;-49
2023/01/06 02:03:45;;;;;;;3.23;2.63;;;12.00;49.60;;;;;;5051764;28;20193;-50
2023/01/06 02:06:20;;;;;;;8.20;3.37;;;12.00;49.50;;;;;;5051620;28;20497;-50
2023/01/06 02:09:12;;;;;;;4.03;2.60;;;11.90;49.50;;;;;;5051729;28;20937;-50
2023/01/06 02:11:39;;;;;;;7.35;3.20;;;11.90;49.50;;;;;;5044173;28;20178;-50
2023/01/06 02:14:14;;;;;;;3.20;2.47;;;11.90;49.70;;;;;;5051599;28;20228;-50
2023/01/06 02:17:06;;;;;;;5.97;2.80;;;11.90;49.70;;;;;;5051570;28;20264;-50
2023/01/06 02:20:11;;;;;;;4.55;3.03;;;11.90;49.70;;;;;;5051593;28;20176;-49
2023/01/06 02:23:09;;;;;;;4.32;2.92;;;11.90;49.60;;;;;;5051450;28;20169;-50
2023/01/06 02:25:53;;;;;;;6.75;3.25;;;11.90;49.70;;;;;;5051317;28;20169;-50
2023/01/06 02:28:34;;;;;;;4.57;3.13;;;11.90;49.60;;;;;;5051567;28;20169;-50
2023/01/06 02:31:26;;;;;;;6.68;2.65;;;11.90;49.70;;;;;;5051533;28;20525;-50
2023/01/06 02:34:23;;;;;;;4.25;2.83;;;11.90;49.60;;;;;;5051309;28;20575;-50
2023/01/06 02:37:18;;;;;;;4.90;2.85;;;11.90;49.60;;;;;;5051478;28;20542;-49
2023/01/06 02:40:03;;;;;;;5.25;2.92;;;11.90;49.50;;;;;;5051475;28;20274;-50
2023/01/06 02:42:36;;;;;;;5.78;3.53;;;11.80;49.30;;;;;;5051394;28;20227;-50
2023/01/06 02:45:49;;;;;;;4.55;3.00;;;11.80;49.50;;;;;;5051509;28;20703;-50
2023/01/06 02:48:27;;;;;;;5.10;3.78;;;11.80;49.40;;;;;;5037053;28;20200;-50
2023/01/06 02:50:59;;;;;;;6.03;2.78;;;11.80;49.50;;;;;;5054208;28;20173;-50
2023/01/06 02:53:39;;;;;;;3.75;3.10;;;11.80;49.60;;;;;;5054950;28;20193;-49
2023/01/06 02:56:07;;;;;;;13.25;5.97;;;11.80;49.60;;;;;;5054760;28;20208;-50
2023/01/06 02:58:53;;;;;;;5.13;3.83;;;11.80;49.60;;;;;;5054885;28;20583;-50
2023/01/06 03:01:30;;;;;;;5.80;3.70;;;11.80;49.50;;;;;;5054795;28;20894;-50
2023/01/06 03:03:59;;;;;;;4.03;3.50;;;11.80;49.60;;;;;;5054751;28;20218;-49
2023/01/06 03:06:29;;;;;;;6.18;3.83;;;11.80;49.80;;;;;;5054535;28;20185;-50
2023/01/06 03:08:56;;;;;;;5.93;3.25;;;11.80;49.60;;;;;;5054683;28;20228;-50
2023/01/06 03:11:27;;;;;;;5.43;3.22;;;11.80;49.60;;;;;;5054584;28;20169;-50
2023/01/06 03:14:17;;;;;;;5.57;3.15;;;11.80;49.50;;;;;;5054482;28;20197;-50
2023/01/06 03:16:43;;;;;;;6.30;3.90;;;11.80;49.60;;;;;;5054520;28;20200;-49
2023/01/06 03:19:09;;;;;;;4.77;2.47;;;11.70;49.70;;;;;;5054762;28;20205;-50
2023/01/06 03:21:39;;;;;;;9.32;2.92;;;11.70;49.90;;;;;;5054443;28;20607;-49
2023/01/06 03:24:06;;;;;;;4.70;2.45;;;11.70;49.90;;;;;;5054273;28;20217;-50
2023/01/06 03:26:34;;;;;;;5.07;3.38;;;11.70;49.80;;;;;;5054227;28;20219;-50
2023/01/06 03:29:00;;;;;;;5.30;2.30;;;11.70;49.90;;;;;;5054614;28;20530;-49
2023/01/06 03:31:38;;;;;;;13.05;3.15;;;11.70;50.50;;;;;;5054375;28;20165;-50
2023/01/06 03:34:21;;;;;;;3.05;2.13;;;11.70;49.90;;;;;;5054109;28;20223;-49
2023/01/06 03:37:07;;;;;;;7.18;3.00;;;11.70;50.00;;;;;;5054193;28;20683;-50
2023/01/06 03:39:56;;;;;;;4.10;2.72;;;11.70;49.90;;;;;;5054047;28;20170;-50
2023/01/06 03:45:36;;;;;;;5.78;2.38;;;11.70;49.90;;;;;;5053870;28;20181;-49
2023/01/06 03:48:06;;;;;;;3.90;2.60;;;11.70;49.90;;;;;;5054030;28;20169;-50
2023/01/06 03:50:44;;;;;;;4.65;2.63;;;11.70;50.00;;;;;;5053954;28;20184;-49
2023/01/06 03:53:40;;;;;;;3.92;2.20;;;11.70;50.00;;;;;;5054027;28;20607;-50
2023/01/06 03:56:09;;;;;;;7.32;3.00;;;11.70;50.00;;;;;;5053648;28;20230;-50
2023/01/06 03:58:37;;;;;;;4.43;2.95;;;11.60;50.00;;;;;;5053763;28;20184;-50
2023/01/06 04:01:04;;;;;;;5.35;3.10;;;11.70;50.10;;;;;;5053472;28;20701;-49
2023/01/06 04:03:30;;;;;;;3.83;2.80;;;11.70;50.10;;;;;;5053504;28;20193;-49
2023/01/06 04:05:56;;;;;;;3.60;2.30;;;11.70;50.00;;;;;;5053386;28;20196;-49
2023/01/06 04:08:21;;;;;;;5.23;2.70;;;11.70;50.00;;;;;;5053792;28;20427;-50
2023/01/06 04:10:47;;;;;;;2.90;2.07;;;11.70;50.00;;;;;;5053916;28;20584;-49
2023/01/06 04:13:13;;;;;;;4.50;2.70;;;11.70;50.00;;;;;;5054002;28;20268;-50
2023/01/06 04:15:40;;;;;;;4.40;2.67;;;11.70;49.90;;;;;;5053680;28;20183;-50
2023/01/06 04:18:05;;;;;;;3.75;2.75;;;11.70;49.80;;;;;;5053394;28;20180;-50
2023/01/06 04:20:31;;;;;;;6.53;2.20;;;11.70;49.90;;;;;;5053220;28;20201;-49
2023/01/06 04:22:57;;;;;;;7.70;2.50;;;11.60;49.80;;;;;;5053223;28;20185;-50
2023/01/06 04:25:23;;;;;;;5.63;2.20;;;11.60;49.90;;;;;;5053040;28;20219;-50
2023/01/06 04:27:49;;;;;;;3.65;2.53;;;11.60;50.00;;;;;;5053105;28;20568;-50
2023/01/06 04:30:15;;;;;;;7.60;3.40;;;11.60;50.00;;;;;;5053100;28;20222;-50
2023/01/06 04:32:41;;;;;;;10.90;2.13;;;11.60;50.00;;;;;;5052797;28;20407;-50
2023/01/06 04:35:07;;;;;;;3.37;2.13;;;11.70;49.90;;;;;;5053082;28;20264;-50
2023/01/06 04:37:33;;;;;;;7.18;2.22;;;11.70;49.80;;;;;;5052987;28;20400;-50
2023/01/06 04:39:59;;;;;;;4.43;2.17;;;11.60;49.70;;;;;;5052916;28;20197;-50
2023/01/06 04:42:24;;;;;;;5.10;2.90;;;11.60;49.70;;;;;;5052889;28;20177;-50
2023/01/06 04:44:50;;;;;;;4.00;2.73;;;11.60;49.80;;;;;;5052527;28;20189;-50
2023/01/06 04:47:16;;;;;;;9.30;2.83;;;11.60;50.00;;;;;;5052713;28;20172;-50
2023/01/06 04:49:42;;;;;;;8.37;2.80;;;11.60;50.00;;;;;;5052809;28;20169;-50
2023/01/06 04:52:07;;;;;;;4.27;2.00;;;11.60;50.00;;;;;;5052733;28;20169;-50
2023/01/06 04:54:34;;;;;;;3.87;2.30;;;11.60;50.00;;;;;;5052398;28;20220;-49
2023/01/06 04:57:00;;;;;;;7.75;2.45;;;11.60;50.00;;;;;;5052654;28;20494;-50
2023/01/06 04:59:26;;;;;;;7.93;3.33;;;11.60;50.00;;;;;;5052685;28;20196;-50
2023/01/06 05:01:51;;;;;;;4.00;2.80;;;11.70;50.00;;;;;;5052533;28;20271;-50
2023/01/06 05:04:17;;;;;;;2.57;1.97;;;11.60;49.90;;;;;;5052522;28;20185;-49
2023/01/06 05:06:44;;;;;;;6.87;2.80;;;11.70;50.00;;;;;;5052799;28;20157;-49
2023/01/06 05:09:10;;;;;;;4.63;3.15;;;11.70;49.90;;;;;;5052491;28;20442;-50
2023/01/06 05:11:36;;;;;;;5.83;2.50;;;11.80;49.80;;;;;;5052285;28;20201;-49
2023/01/06 05:14:02;;;;;;;2.50;2.30;;;11.80;49.70;;;;;;5051926;28;20989;-50
2023/01/06 05:16:32;;;;;;;3.47;2.53;;;11.80;49.70;;;;;;5052038;28;20173;-50
2023/01/06 05:18:58;;;;;;;6.65;2.92;;;11.80;49.60;;;;;;5052208;28;20426;-50
2023/01/06 05:21:26;;;;;;;4.50;2.73;;;11.80;49.70;;;;;;5052205;28;20586;-50
2023/01/06 05:23:53;;;;;;;5.72;3.50;;;11.80;49.80;;;;;;5052158;28;20560;-50
2023/01/06 05:26:25;;;;;;;8.35;3.55;;;11.80;49.70;;;;;;5052390;28;20166;-50
2023/01/06 05:28:51;;;;;;;4.50;2.40;;;11.80;49.80;;;;;;5052191;28;20162;-49
2023/01/06 05:31:17;;;;;;;4.28;2.97;;;11.70;50.00;;;;;;5052069;28;20256;-50
2023/01/06 05:33:43;;;;;;;4.78;2.53;;;11.70;50.00;;;;;;5051911;28;20205;-50
2023/01/06 05:36:11;;;;;;;6.80;3.17;;;11.70;50.00;;;;;;5051794;28;20184;-50
2023/01/06 05:38:37;;;;;;;7.72;3.20;;;11.70;50.10;;;;;;5052037;28;20412;-50
2023/01/06 05:41:03;;;;;;;5.07;2.70;;;11.70;50.30;;;;;;5051929;28;20636;-50
2023/01/06 05:43:31;;;;;;;7.45;3.88;;;11.70;50.40;;;;;;5051844;28;20185;-49
2023/01/06 05:45:57;;;;;;;4.30;3.25;;;11.70;50.50;;;;;;5051777;28;20173;-50
2023/01/06 05:48:25;;;;;;;4.70;3.10;;;11.70;50.80;;;;;;5051929;28;20170;-50
2023/01/06 05:50:50;;;;;;;8.63;3.67;;;11.70;50.90;;;;;;5051965;28;20257;-50
2023/01/06 05:53:17;;;;;;;7.17;3.23;;;11.80;50.70;;;;;;5051793;28;20200;-50
2023/01/06 05:55:42;;;;;;;5.45;3.47;;;11.80;50.70;;;;;;5051630;28;20173;-50
2023/01/06 05:58:08;;;;;;;9.00;3.63;;;11.80;50.80;;;;;;5051740;28;20173;-50
2023/01/06 06:00:34;;;;;;;6.37;3.17;;;11.80;50.80;;;;;;5051711;28;20205;-50
2023/01/06 06:03:00;;;;;;;10.80;3.70;;;11.80;51.00;;;;;;5051703;28;20188;-49
2023/01/06 06:05:25;;;;;;;5.40;3.20;;;11.80;50.90;;;;;;5051540;28;20528;-49
2023/01/06 06:07:55;;;;;;;9.30;3.67;;;11.80;50.90;;;;;;5051675;28;20166;-49
2023/01/06 06:10:22;;;;;;;10.90;4.57;;;11.90;51.20;;;;;;5051647;28;20445;-50
2023/01/06 06:12:50;;;;;;;6.88;4.22;;;11.90;51.30;;;;;;5051540;28;20280;-49
2023/01/06 06:15:16;;;;;;;5.80;3.72;;;11.80;51.20;;;;;;5051440;28;20188;-50
2023/01/06 06:17:42;;;;;;;7.05;3.10;;;11.80;51.40;;;;;;5051637;28;20176;-50
2023/01/06 06:20:08;;;;;;;6.43;3.77;;;11.80;51.40;;;;;;5051527;28;20192;-49
2023/01/06 06:22:34;;;;;;;12.10;5.28;;;11.80;51.70;;;;;;5051404;28;20399;-50
2023/01/06 06:25:00;;;;;;;5.50;3.37;;;11.80;51.70;;;;;;5077298;22;20242;-52
2023/01/06 06:27:26;;;;;;;9.57;4.17;;;11.80;52.00;;;;;;5095858;28;20226;-52
2023/01/06 06:29:52;;;;;;;5.60;3.50;;;11.80;52.00;;;;;;5095740;28;20172;-52
2023/01/06 06:32:18;;;;;;;11.93;4.97;;;11.80;52.00;;;;;;5095522;28;20191;-52
2023/01/06 06:34:44;;;;;;;8.47;4.17;;;11.80;52.20;;;;;;5095283;28;20195;-52
2023/01/06 06:37:09;;;;;;;9.07;4.07;;;11.80;52.00;;;;;;5095454;28;20209;-52
2023/01/06 06:39:35;;;;;;;13.73;4.40;;;11.80;52.00;;;;;;5095405;28;20587;-52
2023/01/06 06:42:01;;;;;;;8.13;3.93;;;11.90;52.10;;;;;;5095352;28;20666;-52
2023/01/06 06:44:26;;;;;;;8.60;4.07;;;11.90;51.90;;;;;;5095271;28;20172;-51
2023/01/06 06:46:52;;;;;;;9.33;5.30;;;12.00;51.80;;;;;;5095374;28;20166;-52
2023/01/06 06:49:18;;;;;;;11.20;4.30;;;12.00;51.70;;;;;;5095370;28;20255;-52
2023/01/06 06:51:46;;;;;;;8.63;4.50;;;12.00;51.60;;;;;;5095205;28;20681;-51
2023/01/06 06:54:12;;;;;;;8.95;4.25;;;12.10;51.70;;;;;;5095119;28;20647;-52
2023/01/06 06:56:38;;;;;;;8.13;4.75;;;12.10;51.70;;;;;;5095182;28;20211;-52
2023/01/06 06:59:04;;;;;;;13.73;4.33;;;12.10;51.70;;;;;;5095299;28;20176;-52
2023/01/06 07:01:32;;;;;;;9.00;4.05;;;12.10;51.70;;;;;;5095275;28;20200;-53
2023/01/06 07:03:58;;;;;;;12.95;3.58;;;12.10;51.70;;;;;;5095155;28;20172;-53
2023/01/06 07:06:26;;;;;;;7.33;3.57;;;12.10;51.80;;;;;;5094910;28;20538;-53
2023/01/06 07:08:52;;;;;;;12.65;4.63;;;12.10;51.90;;;;;;5094981;28;20175;-53
2023/01/06 07:11:19;;;;;;;8.15;4.18;;;12.10;51.90;;;;;;5094977;28;20203;-53
2023/01/06 07:13:44;;;;;;;7.82;4.63;;;12.10;51.80;;;;;;5094815;28;20176;-53
2023/01/06 07:16:11;;;;;;;5.43;4.10;;;12.10;51.80;;;;;;5094636;28;20199;-53
2023/01/06 07:18:37;;;;;;;9.48;4.38;;;12.10;51.80;;;;;;5094748;28;21027;-51
2023/01/06 07:21:04;;;;;;;9.55;5.18;;;12.20;51.90;;;;;;5094650;28;20262;-52
2023/01/06 07:23:30;;;;;;;8.43;5.45;;;12.20;51.70;;;;;;5094525;28;20639;-52
2023/01/06 07:25:58;;;;;;;11.43;4.97;;;12.20;51.70;;;;;;5094139;28;20237;-53
2023/01/06 07:28:25;;;;;;;9.45;5.80;;;12.30;51.90;;;;;;5094496;28;20167;-53
2023/01/06 07:30:51;;;;;;;14.70;5.65;;;12.20;51.80;;;;;;5094412;28;20281;-52
2023/01/06 07:33:18;;;;;;;8.32;5.00;;;12.20;51.80;;;;;;5094409;28;20194;-53
2023/01/06 07:35:44;;;;;;;7.90;5.25;;;12.30;51.90;;;;;;5093605;28;20203;-52
2023/01/06 07:38:10;;;;;;;9.90;5.03;;;12.30;52.00;;;;;;5094338;28;20602;-53
2023/01/06 07:40:36;;;;;;;8.45;6.10;;;12.40;51.90;;;;;;5094666;28;20283;-53
2023/01/06 07:43:04;;;;;;;8.73;5.13;;;12.40;52.10;;;;;;5097506;28;20689;-51
2023/01/06 07:45:30;;;;;;;12.20;6.18;;;12.40;52.00;;;;;;5093974;28;20222;-51
2023/01/06 07:47:56;;;;;;;9.87;5.83;;;12.30;52.20;;;;;;5094131;28;20164;-51
2023/01/06 07:50:22;;;;;;;13.93;5.63;;;12.40;52.40;;;;;;5094170;28;20915;-52
2023/01/06 07:52:47;;;;;;;12.07;8.33;;;12.40;52.40;;;;;;5094134;28;20889;-51
2023/01/06 07:55:13;;;;;;;17.00;6.43;;;12.40;52.40;;;;;;5093910;28;20460;-51
2023/01/06 07:57:39;;;;;;;11.13;5.00;;;12.40;52.40;;;;;;5093911;28;20711;-51
2023/01/06 08:00:05;;;;;;;8.10;6.03;;;12.40;52.60;;;;;;5093870;28;20192;-52
2023/01/06 08:02:31;;;;;;;8.35;5.90;;;12.40;52.40;;;;;;5093787;28;20176;-51
2023/01/06 08:04:57;;;;;;;13.83;5.50;;;12.40;52.60;;;;;;5093876;28;20547;-51
2023/01/06 08:07:22;;;;;;;10.17;6.43;;;12.40;52.50;;;;;;5093736;28;20168;-51
2023/01/06 08:09:48;;;;;;;10.33;7.17;;;12.40;52.90;;;;;;5093826;28;20163;-52
2023/01/06 08:12:14;;;;;;;12.30;6.73;;;12.40;53.00;;;;;;5094036;28;20234;-51
2023/01/06 08:14:39;;;;;;;13.87;6.60;;;12.40;52.90;;;;;;5093330;28;20168;-51
2023/01/06 08:17:05;;;;;;;10.57;6.17;;;12.40;53.10;;;;;;5093465;28;20531;-51
2023/01/06 08:19:31;;;;;;;17.13;7.10;;;12.40;53.00;;;;;;5093802;28;20172;-52
2023/01/06 08:21:57;;;;;;;17.87;6.33;;;12.40;52.90;;;;;;5093412;28;20457;-51
2023/01/06 08:24:22;;;;;;;10.80;6.70;;;12.50;53.10;;;;;;5093178;28;20238;-51
2023/01/06 08:26:48;;;;;;;7.47;5.43;;;12.60;52.90;;;;;;5093399;28;20184;-51
2023/01/06 08:29:14;;;;;;;9.17;5.90;;;12.60;52.80;;;;;;5093424;28;20630;-51
2023/01/06 08:31:40;;;;;;;12.17;8.00;;;12.60;52.80;;;;;;5093352;28;20164;-51
2023/01/06 08:34:05;;;;;;;12.73;8.40;;;12.60;52.70;;;;;;5093286;28;20609;-51
2023/01/06 08:36:31;;;;;;;10.33;7.07;;;12.70;52.90;;;;;;5092999;28;20195;-51
2023/01/06 08:38:57;;;;;;;12.57;7.83;;;12.70;53.00;;;;;;5093229;28;20220;-51
2023/01/06 08:41:22;;;;;;;11.70;6.57;;;12.80;53.00;;;;;;5093103;28;20613;-51
2023/01/06 08:43:49;;;;;;;11.18;6.50;;;12.80;53.00;;;;;;5093087;28;20226;-52
2023/01/06 08:46:18;;;;;;;10.40;7.10;;;12.90;53.20;;;;;;5092599;28;20738;-52
2023/01/06 08:48:45;;;;;;;10.27;5.97;;;13.10;53.40;;;;;;5092456;28;20199;-52
2023/01/06 08:51:16;;;;;;;9.93;6.00;;;13.60;53.20;;;;;;5093198;28;20191;-52
2023/01/06 08:53:43;;;;;;;11.10;6.72;;;13.90;52.50;;;;;;5092906;28;20233;-52
2023/01/06 08:56:14;;;;;;;7.63;5.90;;;14.10;51.80;;;;;;5092635;28;20207;-52
2023/01/06 08:58:41;;;;;;;7.72;5.07;;;14.30;51.90;;;;;;5092716;28;20233;-52
2023/01/06 09:01:13;;;;;;;7.00;5.10;;;14.60;51.70;;;;;;5092727;28;20203;-52
2023/01/06 09:03:39;;;;;;;7.65;5.60;;;14.60;51.30;;;;;;5092781;28;20513;-52
2023/01/06 09:06:05;;;;;;;9.17;5.30;;;14.60;50.80;;;;;;5092400;28;20283;-51
2023/01/06 09:08:32;;;;;;;7.90;4.93;;;14.50;50.80;;;;;;5092625;28;20160;-51
2023/01/06 09:11:02;;;;;;;7.50;5.60;;;14.40;50.70;;;;;;5092627;28;20180;-52
2023/01/06 09:13:28;;;;;;;10.45;5.82;;;14.30;51.00;;;;;;5092497;28;20180;-52
2023/01/06 09:15:54;;;;;;;7.30;4.83;;;14.30;51.50;;;;;;5092249;28;20683;-52
2023/01/06 09:18:19;;;;;;;8.27;6.17;;;14.20;51.70;;;;;;5092698;28;20179;-52
2023/01/06 09:20:46;;;;;;;11.10;5.80;;;14.20;51.80;;;;;;5092386;28;20286;-52
2023/01/06 09:23:12;;;;;;;11.05;5.53;;;13.50;51.60;;;;;;5092408;28;20603;-52
2023/01/06 09:25:38;;;;;;;7.10;5.70;;;14.20;52.10;;;;;;5091991;28;20272;-52
2023/01/06 09:28:04;;;;;;;7.28;5.78;;;14.20;52.10;;;;;;5092250;28;20211;-52
2023/01/06 09:30:30;;;;;;;7.47;5.07;;;14.20;51.90;;;;;;5092286;28;20655;-51
2023/01/06 09:32:55;;;;;;;9.20;5.23;;;14.20;51.90;;;;;;5092279;28;20586;-52
2023/01/06 09:35:21;;;;;;;6.43;4.50;;;14.20;52.00;;;;;;5092026;28;20279;-52
2023/01/06 09:37:47;;;;;;;6.60;4.73;;;14.20;51.90;;;;;;5092281;28;20192;-52
2023/01/06 09:40:20;;;;;;;7.88;5.00;;;14.20;52.00;;;;;;5092106;28;20471;-52
2023/01/06 09:42:57;;;;;;;8.13;5.75;;;14.20;52.10;;;;;;5092219;28;20664;-52
2023/01/06 09:45:45;;;;;;;6.93;5.53;;;14.20;51.90;;;;;;5090580;28;20187;-52
2023/01/06 09:48:17;;;;;;;7.22;5.80;;;14.20;51.90;;;;;;5092178;28;20594;-52
2023/01/06 09:50:49;;;;;;;7.70;5.20;;;14.20;51.90;;;;;;5092072;28;20203;-52
2023/01/06 09:53:18;;;;;;;7.85;5.38;;;14.30;52.00;;;;;;5092130;28;20175;-52
2023/01/06 09:55:47;;;;;;;9.88;5.30;;;14.30;52.10;;;;;;5091859;28;20589;-51
2023/01/06 09:58:15;;;;;;;7.28;4.65;;;14.30;52.20;;;;;;5092266;28;20259;-52
2023/01/06 10:00:51;;;;;;;5.90;4.05;;;14.40;52.20;;;;;;5096053;28;20693;-52
2023/01/06 10:03:23;;;;;;;7.55;5.38;;;14.40;52.00;;;;;;5096006;28;20198;-52
2023/01/06 10:06:06;;;;;;;6.72;4.10;;;14.40;52.00;;;;;;5095898;28;20227;-52
2023/01/06 10:08:53;;;;;;;9.38;4.10;;;14.50;52.00;;;;;;5096252;28;20175;-52
2023/01/06 10:11:58;;;;;;;4.72;3.65;;;14.60;51.90;;;;;;5096095;28;20667;-52
2023/01/06 10:14:42;;;;;;;5.85;4.20;;;14.60;51.90;;;;;;5090667;28;20206;-52
2023/01/06 10:17:29;;;;;;;6.97;4.97;;;14.60;51.90;;;;;;5095909;28;20182;-52
2023/01/06 10:20:16;;;;;;;7.90;4.85;;;14.60;51.90;;;;;;5095692;28;20176;-52
2023/01/06 10:23:19;;;;;;;7.32;5.68;;;14.60;52.00;;;;;;5096010;28;20180;-52
2023/01/06 10:26:00;;;;;;;5.75;4.28;;;14.50;52.00;;;;;;5086543;28;20215;-52
2023/01/06 10:28:55;;;;;;;5.00;3.47;;;14.60;52.20;;;;;;5095647;28;20614;-52
2023/01/06 10:31:26;;;;;;;5.85;4.22;;;14.60;52.00;;;;;;5095698;28;20188;-52
2023/01/06 10:33:55;;;;;;;7.15;3.30;;;14.50;52.10;;;;;;5095635;28;20180;-51
2023/01/06 10:36:38;;;;;;;5.95;4.35;;;14.60;52.20;;;;;;5095272;28;20254;-52
2023/01/06 10:39:12;;;;;;;6.40;4.75;;;14.60;52.00;;;;;;5095940;28;20301;-52
2023/01/06 10:44:49;;;;;;;4.82;4.03;;;14.60;51.90;;;;;;5095090;28;20199;-53
2023/01/06 10:47:30;;;;;;;5.23;3.57;;;14.60;52.20;;;;;;5095189;28;20179;-52
2023/01/06 10:49:57;;;;;;;6.22;4.35;;;14.70;52.30;;;;;;5095250;28;20172;-52
2023/01/06 10:52:24;;;;;;;10.43;4.47;;;14.70;52.20;;;;;;5095422;28;20176;-52
2023/01/06 10:54:55;;;;;;;8.32;4.70;;;14.70;52.10;;;;;;5094960;28;20184;-52
2023/01/06 10:57:30;;;;;;;7.60;4.78;;;14.80;52.10;;;;;;5095455;28;20576;-52
2023/01/06 11:00:22;;;;;;;6.32;5.57;;;14.80;52.00;;;;;;5095094;28;20530;-52
2023/01/06 11:03:02;;;;;;;8.63;4.82;;;14.90;51.90;;;;;;5095097;28;20164;-52
2023/01/06 11:05:30;;;;;;;5.78;4.38;;;14.80;52.00;;;;;;5094945;28;20200;-52
2023/01/06 11:08:02;;;;;;;5.70;3.85;;;14.80;52.00;;;;;;5094928;28;20251;-52
2023/01/06 11:10:57;;;;;;;5.25;4.38;;;14.90;52.20;;;;;;5093884;28;20179;-52
2023/01/06 11:13:28;;;;;;;10.85;5.07;;;15.00;52.20;;;;;;5090029;28;20176;-52
2023/01/06 11:15:55;;;;;;;6.50;4.47;;;15.00;52.20;;;;;;5094572;28;20188;-52
2023/01/06 11:18:27;;;;;;;7.20;4.95;;;15.00;52.00;;;;;;5094710;28;20639;-52
2023/01/06 11:21:16;;;;;;;4.88;3.90;;;15.10;52.10;;;;;;5094645;28;20191;-52
2023/01/06 11:23:45;;;;;;;7.63;5.70;;;15.20;51.90;;;;;;5094768;28;20172;-52
2023/01/06 11:26:11;;;;;;;7.32;4.90;;;15.20;52.00;;;;;;5094134;28;20207;-52
2023/01/06 11:28:42;;;;;;;6.80;4.07;;;15.20;52.70;;;;;;5094467;28;20156;-52
2023/01/06 11:31:14;;;;;;;5.55;3.65;;;15.30;51.80;;;;;;5094539;28;20247;-52
2023/01/06 11:34:18;;;;;;;7.78;4.70;;;15.30;51.70;;;;;;5094664;28;20198;-52
2023/01/06 11:36:46;;;;;;;5.85;4.70;;;15.30;51.70;;;;;;5094349;28;20282;-52
2023/01/06 11:39:34;;;;;;;6.20;4.18;;;15.30;51.40;;;;;;5094155;28;20722;-52
2023/01/06 11:42:13;;;;;;;3.22;2.00;;;15.40;51.60;;;;;;5094247;28;20295;-52
2023/01/06 11:44:41;;;;;;;1.92;1.20;;;15.30;49.30;;;;;;5094115;28;20180;-51
2023/01/06 11:47:14;;;;;;;1.92;1.42;;;15.10;49.70;;;;;;5094239;28;20667;-52
2023/01/06 11:49:52;;;;;;;1.50;1.10;;;15.20;50.00;;;;;;5094189;28;20180;-52
2023/01/06 11:52:20;;;;;;;2.88;1.70;;;15.20;49.60;;;;;;5094350;28;20199;-52
2023/01/06 11:55:04;;;;;;;1.40;0.80;;;15.20;49.60;;;;;;5093774;28;20200;-51
2023/01/06 11:57:34;;;;;;;1.10;0.60;;;15.40;49.10;;;;;;5094109;28;20651;-53
2023/01/06 12:00:21;;;;;;;1.55;1.25;;;15.40;48.90;;;;;;5093875;28;20176;-52
2023/01/06 12:03:11;;;;;;;3.70;1.00;;;15.50;48.80;;;;;;5093929;28;20164;-52
2023/01/06 12:05:37;;;;;;;1.95;1.05;;;15.50;49.30;;;;;;5093524;28;20251;-52
2023/01/06 12:08:36;;;;;;;1.98;0.68;;;15.50;49.20;;;;;;5093823;28;20178;-52
2023/01/06 12:11:40;;;;;;;1.60;0.80;;;15.50;49.00;;;;;;5093649;28;20180;-52
2023/01/06 12:14:21;;;;;;;2.15;0.70;;;15.50;49.30;;;;;;5093759;28;20180;-53
2023/01/06 12:17:15;;;;;;;3.28;0.85;;;15.40;49.70;;;;;;5093859;28;20171;-52
2023/01/06 12:19:51;;;;;;;2.08;1.38;;;15.30;49.90;;;;;;5093586;28;20203;-53
2023/01/06 12:22:22;;;;;;;1.27;0.70;;;15.20;50.10;;;;;;5093572;28;20236;-53
2023/01/06 12:24:50;;;;;;;1.30;0.82;;;15.00;50.20;;;;;;5093026;28;20196;-52
2023/01/06 12:27:35;;;;;;;2.28;0.85;;;14.90;50.70;;;;;;5093385;28;20164;-52
2023/01/06 12:30:06;;;;;;;1.20;0.80;;;14.80;51.10;;;;;;5107341;22;20231;-50
2023/01/06 12:32:39;;;;;;;1.58;0.73;;;14.70;51.20;;;;;;5093327;28;20179;-50
2023/01/06 12:35:10;;;;;;;1.30;0.90;;;14.80;51.10;;;;;;5093165;28;20164;-50
2023/01/06 12:37:41;;;;;;;1.70;1.00;;;14.70;51.10;;;;;;5093174;28;20160;-50
2023/01/06 12:40:25;;;;;;;1.70;1.00;;;14.60;50.70;;;;;;5093080;28;20179;-50
2023/01/06 12:43:21;;;;;;;1.25;0.70;;;14.70;51.20;;;;;;5093158;28;20630;-50
2023/01/06 12:46:16;;;;;;;1.20;0.60;;;14.70;50.70;;;;;;5092968;28;20191;-50
2023/01/06 12:48:54;;;;;;;1.55;0.88;;;14.60;49.70;;;;;;5093074;28;20172;-50
2023/01/06 12:51:36;;;;;;;1.50;0.70;;;14.40;49.80;;;;;;5093442;28;20198;-50
2023/01/06 12:54:10;;;;;;;1.55;0.68;;;14.60;49.50;;;;;;5092781;28;20202;-50
2023/01/06 12:56:55;;;;;;;1.50;0.70;;;14.60;49.50;;;;;;5092704;28;20164;-50
2023/01/06 12:59:24;;;;;;;1.20;0.50;;;14.50;49.10;;;;;;5092633;28;20192;-50
2023/01/06 13:02:04;;;;;;;2.22;0.88;;;14.50;48.40;;;;;;5092656;28;20706;-51
2023/01/06 13:04:58;;;;;;;1.60;1.17;;;14.60;49.00;;;;;;5092451;28;20210;-50
2023/01/06 13:07:41;;;;;;;2.83;1.08;;;14.70;48.30;;;;;;5092764;28;20243;-50
2023/01/06 13:10:19;;;;;;;1.35;0.70;;;14.70;48.60;;;;;;5092567;28;20188;-50
2023/01/06 13:13:02;;;;;;;2.05;0.90;;;14.70;47.80;;;;;;5092512;28;20639;-50
2023/01/06 13:15:31;;;;;;;1.40;0.82;;;14.70;47.90;;;;;;5092356;28;20175;-50
2023/01/06 13:18:02;;;;;;;2.38;1.10;;;14.80;48.00;;;;;;5092516;28;20164;-50